createdAt,value
2018-04-10T00:00:30.823Z,84.04
2018-04-10T00:02:58.658Z,84.85
2018-04-10T00:05:26.373Z,84.23
2018-04-10T00:07:54.186Z,84.61
2018-04-10T00:10:21.966Z,86.18
2018-04-10T00:12:49.577Z,85.68
2018-04-10T00:15:17.305Z,83.96
2018-04-10T00:17:45.091Z,83.00
2018-04-10T00:20:13.017Z,84.54
2018-04-10T00:22:40.877Z,84.72
2018-04-10T00:25:08.788Z,84.55
2018-04-10T00:27:36.321Z,84.11
2018-04-10T00:30:03.946Z,84.22
2018-04-10T00:32:31.762Z,85.96
2018-04-10T00:34:59.447Z,85.59
2018-04-10T00:37:27.257Z,87.17
2018-04-10T00:39:54.961Z,86.41
2018-04-10T00:42:22.618Z,85.81
2018-04-10T00:44:50.368Z,86.26
2018-04-10T00:47:18.319Z,87.49
2018-04-10T00:49:46.182Z,88.52
2018-04-10T00:52:13.861Z,87.88
2018-04-10T00:54:41.502Z,86.08
2018-04-10T00:57:09.313Z,86.42
2018-04-10T00:59:37.002Z,86.25
2018-04-10T01:02:04.744Z,85.88
2018-04-10T01:04:32.397Z,86.67
2018-04-10T01:07:00.377Z,87.12
2018-04-10T01:09:28.098Z,87.30
2018-04-10T01:11:55.906Z,87.08
2018-04-10T01:14:23.778Z,86.72
2018-04-10T01:16:51.538Z,86.54
2018-04-10T01:19:19.219Z,85.88
2018-04-10T01:21:47.031Z,86.53
2018-04-10T01:24:14.684Z,86.87
2018-04-10T01:26:42.397Z,86.21
2018-04-10T01:29:10.156Z,84.87
2018-04-10T01:31:37.876Z,85.52
2018-04-10T01:34:05.638Z,84.98
2018-04-10T01:36:33.326Z,85.93
2018-04-10T01:39:01.058Z,84.84
2018-04-10T01:41:28.642Z,86.08
2018-04-10T01:43:56.317Z,85.01
2018-04-10T01:46:24.358Z,85.42
2018-04-10T01:48:52.093Z,85.71
2018-04-10T01:51:19.776Z,85.50
2018-04-10T01:53:47.492Z,85.29
2018-04-10T01:56:15.318Z,84.66
2018-04-10T01:58:43.293Z,83.71
2018-04-10T02:01:10.968Z,84.72
2018-04-10T02:03:38.667Z,85.48
2018-04-10T02:06:07.420Z,86.94
2018-04-10T02:08:35.732Z,86.27
2018-04-10T02:11:03.456Z,85.49
2018-04-10T02:13:31.437Z,87.66
2018-04-10T02:15:59.222Z,87.93
2018-04-10T02:18:27.111Z,86.95
2018-04-10T02:20:54.923Z,86.20
2018-04-10T02:23:22.650Z,85.35
2018-04-10T02:25:50.945Z,86.37
2018-04-10T02:28:18.633Z,85.31
2018-04-10T02:30:46.263Z,85.76
2018-04-10T02:33:13.915Z,85.72
2018-04-10T02:35:41.620Z,87.07
2018-04-10T02:38:09.437Z,88.00
2018-04-10T02:40:37.189Z,89.22
2018-04-10T02:43:04.960Z,89.36
2018-04-10T02:45:32.819Z,87.37
2018-04-10T02:48:00.607Z,86.71
2018-04-10T02:50:28.593Z,85.98
2018-04-10T02:52:56.279Z,85.16
2018-04-10T02:55:23.935Z,85.98
2018-04-10T02:57:51.604Z,86.73
2018-04-10T03:00:19.645Z,86.29
2018-04-10T03:02:47.472Z,85.57
2018-04-10T03:05:15.344Z,86.14
2018-04-10T03:07:43.069Z,86.46
2018-04-10T03:10:10.874Z,86.77
2018-04-10T03:12:38.684Z,87.71
2018-04-10T03:15:06.301Z,88.29
2018-04-10T03:17:33.835Z,88.41
2018-04-10T03:20:01.543Z,87.77
2018-04-10T03:22:29.200Z,86.59
2018-04-10T03:24:56.824Z,85.95
2018-04-10T03:27:24.681Z,86.80
2018-04-10T03:29:52.498Z,85.96
2018-04-10T03:32:20.329Z,85.38
2018-04-10T03:34:48.070Z,84.89
2018-04-10T03:37:15.631Z,86.70
2018-04-10T03:39:43.457Z,88.17
2018-04-10T03:42:11.163Z,87.29
2018-04-10T03:44:39.095Z,87.87
2018-04-10T03:47:06.769Z,88.67
2018-04-10T03:49:34.553Z,89.39
2018-04-10T03:52:02.243Z,89.04
2018-04-10T03:54:29.824Z,90.00
2018-04-10T03:56:57.469Z,90.70
2018-04-10T03:59:25.189Z,90.63
2018-04-10T04:01:53.080Z,90.14
2018-04-10T04:04:20.973Z,89.33
2018-04-10T04:06:48.610Z,89.37
2018-04-10T04:09:16.423Z,89.57
2018-04-10T04:11:44.134Z,89.01
2018-04-10T04:14:11.895Z,88.22
2018-04-10T04:19:55.435Z,88.43
2018-04-10T04:22:34.958Z,89.38
2018-04-10T04:25:02.469Z,88.59
2018-04-10T04:27:29.999Z,89.70
2018-04-10T04:29:57.541Z,89.57
2018-04-10T04:32:25.330Z,90.61
2018-04-10T04:34:53.044Z,91.16
2018-04-10T04:37:20.898Z,91.12
2018-04-10T04:39:48.720Z,91.05
2018-04-10T04:42:16.449Z,91.35
2018-04-10T04:44:44.509Z,91.05
2018-04-10T04:47:12.429Z,90.00
2018-04-10T04:49:41.148Z,89.91
2018-04-10T04:52:08.766Z,91.15
2018-04-10T04:54:36.544Z,91.03
2018-04-10T04:57:04.094Z,91.45
2018-04-10T04:59:31.672Z,91.60
2018-04-10T05:01:59.286Z,91.57
2018-04-10T05:04:26.950Z,90.36
2018-04-10T05:06:54.620Z,89.28
2018-04-10T05:09:22.583Z,89.44
2018-04-10T05:11:50.315Z,90.94
2018-04-10T05:14:17.962Z,92.14
2018-04-10T05:16:45.575Z,91.96
2018-04-10T05:19:13.213Z,90.47
2018-04-10T05:21:41.309Z,89.77
2018-04-10T05:24:09.074Z,88.82
2018-04-10T05:26:36.700Z,88.89
2018-04-10T05:29:04.522Z,89.42
2018-04-10T05:31:32.315Z,88.93
2018-04-10T05:34:00.120Z,89.25
2018-04-10T05:36:27.974Z,88.92
2018-04-10T05:38:55.615Z,88.04
2018-04-10T05:41:23.288Z,87.23
2018-04-10T05:43:51.000Z,89.83
2018-04-10T05:46:18.579Z,89.85
2018-04-10T05:48:46.165Z,89.37
2018-04-10T05:51:13.827Z,88.68
2018-04-10T05:53:41.568Z,88.01
2018-04-10T05:56:09.419Z,87.99
2018-04-10T05:58:37.135Z,87.07
2018-04-10T06:01:04.814Z,86.14
2018-04-10T06:03:32.634Z,85.70
2018-04-10T06:06:00.283Z,84.66
2018-04-10T06:08:28.135Z,84.88
2018-04-10T06:10:56.090Z,85.47
2018-04-10T06:13:23.840Z,84.71
2018-04-10T06:15:51.790Z,84.59
2018-04-10T06:18:19.388Z,84.07
2018-04-10T06:20:47.101Z,83.39
2018-04-10T06:23:14.866Z,83.46
2018-04-10T06:25:42.568Z,81.79
2018-04-10T06:28:10.376Z,82.00
2018-04-10T06:30:38.114Z,81.17
2018-04-10T06:33:05.897Z,79.57
2018-04-10T06:35:33.515Z,77.92
2018-04-10T06:38:01.415Z,78.19
2018-04-10T06:40:29.189Z,77.01
2018-04-10T06:42:56.897Z,75.44
2018-04-10T06:45:24.697Z,74.56
2018-04-10T06:47:52.315Z,73.97
2018-04-10T06:50:20.127Z,71.42
2018-04-10T06:52:47.882Z,71.21
2018-04-10T06:55:15.635Z,71.02
2018-04-10T06:57:43.417Z,70.94
2018-04-10T07:00:11.230Z,69.20
2018-04-10T07:02:39.300Z,69.49
2018-04-10T07:05:07.085Z,69.26
2018-04-10T07:07:34.885Z,69.55
2018-04-10T07:10:02.735Z,68.93
2018-04-10T07:12:30.415Z,68.66
2018-04-10T07:14:58.521Z,68.29
2018-04-10T07:17:26.159Z,68.11
2018-04-10T07:19:53.789Z,68.32
2018-04-10T07:22:21.534Z,67.08
2018-04-10T07:24:49.192Z,67.28
2018-04-10T07:27:16.892Z,66.79
2018-04-10T07:29:44.719Z,66.84
2018-04-10T07:32:12.365Z,67.42
2018-04-10T07:34:40.052Z,65.93
2018-04-10T07:37:07.655Z,63.26
2018-04-10T07:39:35.468Z,64.82
2018-04-10T07:42:03.306Z,61.93
2018-04-10T07:44:30.941Z,63.55
2018-04-10T07:46:58.736Z,64.13
2018-04-10T07:49:26.422Z,63.84
2018-04-10T07:51:54.100Z,63.47
2018-04-10T07:54:21.885Z,63.72
2018-04-10T07:56:49.650Z,64.38
2018-04-10T07:59:17.674Z,63.94
2018-04-10T08:01:45.379Z,60.89
2018-04-10T08:04:13.120Z,58.26
2018-04-10T08:06:40.937Z,57.13
2018-04-10T08:09:08.827Z,54.26
2018-04-10T08:11:36.584Z,51.50
2018-04-10T08:14:04.257Z,51.22
2018-04-10T08:16:31.991Z,49.48
2018-04-10T08:18:59.650Z,49.89
2018-04-10T08:21:27.726Z,49.71
2018-04-10T08:23:55.406Z,47.62
2018-04-10T08:26:23.135Z,47.94
2018-04-10T08:28:50.942Z,47.38
2018-04-10T08:31:18.944Z,47.21
2018-04-10T08:33:46.844Z,47.94
2018-04-10T08:36:14.759Z,46.95
2018-04-10T08:38:42.529Z,48.87
2018-04-10T08:41:10.469Z,49.29
2018-04-10T08:43:38.109Z,46.40
2018-04-10T08:46:05.690Z,50.83
2018-04-10T08:48:33.510Z,48.93
2018-04-10T08:51:01.199Z,47.25
2018-04-10T08:53:28.719Z,46.13
2018-04-10T08:55:56.264Z,45.20
2018-04-10T08:58:24.035Z,43.29
2018-04-10T09:00:51.769Z,44.16
2018-04-10T09:03:19.548Z,40.33
2018-04-10T09:05:47.409Z,40.33
2018-04-10T09:08:15.041Z,39.00
2018-04-10T09:10:43.221Z,38.54
2018-04-10T09:13:11.605Z,38.35
2018-04-10T09:15:39.295Z,42.00
2018-04-10T09:18:07.161Z,39.03
2018-04-10T09:20:34.829Z,39.34
2018-04-10T09:23:02.819Z,35.33
2018-04-10T09:25:30.509Z,35.04
2018-04-10T09:27:58.099Z,37.28
2018-04-10T09:30:25.921Z,36.60
2018-04-10T09:32:53.675Z,35.96
2018-04-10T09:35:21.419Z,33.92
2018-04-10T09:37:49.029Z,32.67
2018-04-10T09:40:16.774Z,31.75
2018-04-10T09:42:44.437Z,31.30
2018-04-10T09:45:12.091Z,31.50
2018-04-10T09:47:39.723Z,29.00
2018-04-10T09:50:07.276Z,27.71
2018-04-10T09:52:35.010Z,28.99
2018-04-10T09:55:02.738Z,31.10
2018-04-10T09:57:30.268Z,31.52
2018-04-10T09:59:57.888Z,32.72
2018-04-10T10:02:25.413Z,30.78
2018-04-10T10:04:53.214Z,27.85
2018-04-10T10:07:20.882Z,25.19
2018-04-10T10:09:48.518Z,27.86
2018-04-10T10:12:16.268Z,27.19
2018-04-10T10:14:44.117Z,28.15
2018-04-10T10:17:11.828Z,27.70
2018-04-10T10:19:39.621Z,28.04
2018-04-10T10:22:07.203Z,28.45
2018-04-10T10:24:34.841Z,26.32
2018-04-10T10:27:02.424Z,23.72
2018-04-10T10:29:30.109Z,22.86
2018-04-10T10:31:57.910Z,23.29
2018-04-10T10:34:25.764Z,24.06
2018-04-10T10:36:53.447Z,25.38
2018-04-10T10:39:21.047Z,24.96
2018-04-10T10:41:48.782Z,26.31
2018-04-10T10:44:16.360Z,24.52
2018-04-10T10:46:43.973Z,28.14
2018-04-10T10:49:11.705Z,27.76
2018-04-10T10:51:39.386Z,25.02
2018-04-10T10:54:07.005Z,26.38
2018-04-10T10:56:34.771Z,25.75
2018-04-10T10:59:02.763Z,24.79
2018-04-10T11:01:30.637Z,23.94
2018-04-10T11:03:58.444Z,25.79
2018-04-10T11:06:26.205Z,26.69
2018-04-10T11:08:53.869Z,23.86
2018-04-10T11:11:21.539Z,23.14
2018-04-10T11:13:49.186Z,22.80
2018-04-10T11:16:17.001Z,23.25
2018-04-10T11:18:44.581Z,21.98
2018-04-10T11:21:12.173Z,22.20
2018-04-10T11:23:39.861Z,21.91
2018-04-10T11:26:07.723Z,22.49
2018-04-10T11:28:35.369Z,21.38
2018-04-10T11:31:03.143Z,22.61
2018-04-10T11:33:30.993Z,21.19
2018-04-10T11:35:58.679Z,21.79
2018-04-10T11:38:26.413Z,22.16
2018-04-10T11:40:54.251Z,21.41
2018-04-10T11:43:21.985Z,22.62
2018-04-10T11:45:49.747Z,22.82
2018-04-10T11:48:17.581Z,22.30
2018-04-10T11:50:45.287Z,23.65
2018-04-10T11:53:13.109Z,21.67
2018-04-10T11:55:40.837Z,25.41
2018-04-10T11:58:08.938Z,23.88
2018-04-10T12:00:36.860Z,21.63
2018-04-10T12:03:04.634Z,24.13
2018-04-10T12:05:32.405Z,21.52
2018-04-10T12:08:00.104Z,19.77
2018-04-10T12:10:27.745Z,19.27
2018-04-10T12:12:55.493Z,19.54
2018-04-10T12:15:23.446Z,19.54
2018-04-10T12:17:51.288Z,20.92
2018-04-10T12:20:19.162Z,20.78
2018-04-10T12:22:46.943Z,20.23
2018-04-10T12:25:14.878Z,19.01
2018-04-10T12:27:42.713Z,19.32
2018-04-10T12:30:10.623Z,19.68
2018-04-10T12:32:38.307Z,20.45
2018-04-10T12:35:06.009Z,18.74
2018-04-10T12:37:33.695Z,22.84
2018-04-10T12:40:01.533Z,21.34
2018-04-10T12:42:29.300Z,21.50
2018-04-10T12:44:57.108Z,20.36
2018-04-10T12:47:24.842Z,19.24
2018-04-10T12:49:52.559Z,19.43
2018-04-10T12:52:20.705Z,21.21
2018-04-10T12:54:49.421Z,23.83
2018-04-10T12:57:17.169Z,21.37
2018-04-10T12:59:44.742Z,19.86
2018-04-10T13:02:12.379Z,19.85
2018-04-10T13:04:40.330Z,20.66
2018-04-10T13:07:07.992Z,22.87
2018-04-10T13:09:35.673Z,23.99
2018-04-10T13:12:03.314Z,23.15
2018-04-10T13:14:30.887Z,21.31
2018-04-10T13:16:58.683Z,20.22
2018-04-10T13:19:26.337Z,22.43
2018-04-10T13:21:53.967Z,22.14
2018-04-10T13:24:21.593Z,22.34
2018-04-10T13:26:49.259Z,23.90
2018-04-10T13:29:16.839Z,22.50
2018-04-10T13:31:44.782Z,23.13
2018-04-10T13:34:12.896Z,24.08
2018-04-10T13:36:41.246Z,26.98
2018-04-10T13:39:09.061Z,30.44
2018-04-10T13:41:36.639Z,30.26
2018-04-10T13:44:04.501Z,30.97
2018-04-10T13:46:32.102Z,30.59
2018-04-10T13:48:59.914Z,29.94
2018-04-10T13:51:28.194Z,30.81
2018-04-10T13:53:55.934Z,30.86
2018-04-10T13:56:23.660Z,31.89
2018-04-10T13:58:51.629Z,33.06
2018-04-10T14:01:19.454Z,32.49
2018-04-10T14:03:47.092Z,33.12
2018-04-10T14:06:15.159Z,32.85
2018-04-10T14:08:42.864Z,33.80
2018-04-10T14:11:10.581Z,33.02
2018-04-10T14:13:38.139Z,34.78
2018-04-10T14:16:05.727Z,34.78
2018-04-10T14:18:33.302Z,36.03
2018-04-10T14:21:00.999Z,36.09
2018-04-10T14:23:28.570Z,36.34
2018-04-10T14:25:56.269Z,36.25
2018-04-10T14:28:23.875Z,36.96
2018-04-10T14:30:51.953Z,37.60
2018-04-10T14:33:19.874Z,39.35
2018-04-10T14:35:47.599Z,39.58
2018-04-10T14:38:15.406Z,40.20
2018-04-10T14:40:43.074Z,42.23
2018-04-10T14:43:10.778Z,49.46
2018-04-10T14:45:38.611Z,47.24
2018-04-10T14:48:06.348Z,48.26
2018-04-10T14:50:34.290Z,47.82
2018-04-10T14:53:02.373Z,55.11
2018-04-10T14:55:30.545Z,55.34
2018-04-10T14:57:58.469Z,60.35
2018-04-10T15:00:26.149Z,65.48
2018-04-10T15:02:53.984Z,67.41
2018-04-10T15:05:21.838Z,62.25
2018-04-10T15:07:49.565Z,62.83
2018-04-10T15:10:17.483Z,64.71
2018-04-10T15:12:45.233Z,67.29
2018-04-10T15:15:13.164Z,66.49
2018-04-10T15:17:40.880Z,64.14
2018-04-10T15:20:08.634Z,67.96
2018-04-10T15:22:36.238Z,64.52
2018-04-10T15:25:03.935Z,65.56
2018-04-10T15:27:31.677Z,65.69
2018-04-10T15:29:59.475Z,67.95
2018-04-10T15:32:27.155Z,70.97
2018-04-10T15:34:55.095Z,75.02
2018-04-10T15:37:22.918Z,73.92
2018-04-10T15:39:50.729Z,79.64
2018-04-10T15:42:18.563Z,74.12
2018-04-10T15:44:46.349Z,67.60
2018-04-10T15:47:14.131Z,69.69
2018-04-10T15:49:41.973Z,73.25
2018-04-10T15:52:09.764Z,71.49
2018-04-10T15:54:37.429Z,74.45
2018-04-10T15:57:05.106Z,74.65
2018-04-10T15:59:33.914Z,76.12
2018-04-10T16:02:01.631Z,75.82
2018-04-10T16:04:29.429Z,78.26
2018-04-10T16:06:57.245Z,82.21
2018-04-10T16:09:24.869Z,83.92
2018-04-10T16:11:52.664Z,87.91
2018-04-10T16:14:20.408Z,86.62
2018-04-10T16:16:48.177Z,88.79
2018-04-10T16:19:16.120Z,91.02
2018-04-10T16:21:43.816Z,92.84
2018-04-10T16:24:11.498Z,93.08
2018-04-10T16:26:39.333Z,93.92
2018-04-10T16:29:06.978Z,94.21
2018-04-10T16:31:34.879Z,92.95
2018-04-10T16:34:02.594Z,94.19
2018-04-10T16:36:30.385Z,95.15
2018-04-10T16:38:58.254Z,92.98
2018-04-10T16:41:25.993Z,94.77
2018-04-10T16:43:53.920Z,92.63
2018-04-10T16:46:21.645Z,91.89
2018-04-10T16:48:49.283Z,92.93
2018-04-10T16:51:17.095Z,93.86
2018-04-10T16:53:44.980Z,93.44
2018-04-10T16:56:12.839Z,91.22
2018-04-10T16:58:40.578Z,92.58
2018-04-10T17:01:08.323Z,94.54
2018-04-10T17:03:36.089Z,93.77
2018-04-10T17:06:03.988Z,93.92
2018-04-10T17:08:31.738Z,94.50
2018-04-10T17:10:59.563Z,92.54
2018-04-10T17:13:27.313Z,93.20
2018-04-10T17:15:55.335Z,94.60
2018-04-10T17:18:23.179Z,93.69
2018-04-10T17:20:51.031Z,91.33
2018-04-10T17:23:18.695Z,90.99
2018-04-10T17:25:46.450Z,92.41
2018-04-10T17:28:14.483Z,92.97
2018-04-10T17:30:42.301Z,93.86
2018-04-10T17:33:09.908Z,92.24
2018-04-10T17:35:37.715Z,93.10
2018-04-10T17:38:05.590Z,92.22
2018-04-10T17:40:33.373Z,91.95
2018-04-10T17:43:01.163Z,92.98
2018-04-10T17:45:29.874Z,93.30
2018-04-10T17:47:57.610Z,93.82
2018-04-10T17:50:25.564Z,91.31
2018-04-10T17:52:53.199Z,90.68
2018-04-10T17:55:20.753Z,90.25
2018-04-10T17:57:48.585Z,90.29
2018-04-10T18:00:16.500Z,90.13
2018-04-10T18:02:44.302Z,90.68
2018-04-10T18:05:12.005Z,90.07
2018-04-10T18:07:39.745Z,91.55
2018-04-10T18:10:07.683Z,91.15
2018-04-10T18:12:35.644Z,91.83
2018-04-10T18:15:03.895Z,92.33
2018-04-10T18:17:31.629Z,92.81
2018-04-10T18:19:59.419Z,92.16
2018-04-10T18:22:27.119Z,93.27
2018-04-10T18:24:54.956Z,93.08
2018-04-10T18:27:22.943Z,93.75
2018-04-10T18:29:50.700Z,95.15
2018-04-10T18:32:18.649Z,93.60
2018-04-10T18:34:46.429Z,93.67
2018-04-10T18:37:14.165Z,94.61
2018-04-10T18:39:42.075Z,95.02
2018-04-10T18:42:09.985Z,95.14
2018-04-10T18:44:37.714Z,94.28
2018-04-10T18:47:05.806Z,94.46
2018-04-10T18:49:33.783Z,95.42
2018-04-10T18:52:01.761Z,95.10
2018-04-10T18:54:29.526Z,95.96
2018-04-10T18:56:57.384Z,96.26
2018-04-10T18:59:25.667Z,95.67
2018-04-10T19:01:53.470Z,95.19
2018-04-10T19:04:21.299Z,94.35
2018-04-10T19:06:49.080Z,91.64
2018-04-10T19:09:17.254Z,93.45
2018-04-10T19:11:45.185Z,93.62
2018-04-10T19:14:13.005Z,92.67
2018-04-10T19:16:40.911Z,94.83
2018-04-10T19:19:08.773Z,94.12
2018-04-10T19:21:36.517Z,94.29
2018-04-10T19:24:04.522Z,96.13
2018-04-10T19:26:32.341Z,96.58
2018-04-10T19:29:00.368Z,96.82
2018-04-10T19:31:28.221Z,95.96
2018-04-10T19:33:56.174Z,95.94
2018-04-10T19:36:24.349Z,94.85
2018-04-10T19:38:52.229Z,95.19
2018-04-10T19:41:20.095Z,93.90
2018-04-10T19:43:48.116Z,94.48
2018-04-10T19:46:15.971Z,94.46
2018-04-10T19:48:44.025Z,94.78
2018-04-10T19:51:11.889Z,95.04
2018-04-10T19:53:39.720Z,94.99
2018-04-10T19:56:07.614Z,95.17
2018-04-10T19:58:35.506Z,95.45
2018-04-10T20:01:03.338Z,95.59
2018-04-10T20:03:31.439Z,94.22
2018-04-10T20:05:59.335Z,91.44
2018-04-10T20:08:27.216Z,93.35
2018-04-10T20:10:54.980Z,93.15
2018-04-10T20:13:22.938Z,92.33
2018-04-10T20:15:50.822Z,93.06
2018-04-10T20:18:18.821Z,93.60
2018-04-10T20:20:46.885Z,92.92
2018-04-10T20:23:14.870Z,92.80
2018-04-10T20:25:42.671Z,91.35
2018-04-10T20:28:10.630Z,92.23
2018-04-10T20:30:38.449Z,93.88
2018-04-10T20:33:06.205Z,93.05
2018-04-10T20:35:34.101Z,91.70
2018-04-10T20:38:01.854Z,93.64
2018-04-10T20:40:29.669Z,94.74
2018-04-10T20:42:57.362Z,96.09
2018-04-10T20:45:25.426Z,96.09
2018-04-10T20:47:53.085Z,95.44
2018-04-10T20:50:20.768Z,96.45
2018-04-10T20:52:48.509Z,94.77
2018-04-10T20:55:16.334Z,95.64
2018-04-10T20:57:44.269Z,96.00
2018-04-10T21:00:12.209Z,95.73
2018-04-10T21:02:39.780Z,96.66
2018-04-10T21:05:07.432Z,95.95
2018-04-10T21:07:35.272Z,95.88
2018-04-10T21:10:03.127Z,96.93
2018-04-10T21:12:30.887Z,97.00
2018-04-10T21:14:58.855Z,96.72
2018-04-10T21:17:26.575Z,95.80
2018-04-10T21:19:54.282Z,96.19
2018-04-10T21:22:22.058Z,96.86
2018-04-10T21:24:49.701Z,97.08
2018-04-10T21:27:17.333Z,95.81
2018-04-10T21:29:45.076Z,96.01
2018-04-10T21:32:12.752Z,95.19
2018-04-10T21:34:40.438Z,94.11
2018-04-10T21:37:08.031Z,94.36
2018-04-10T21:39:35.905Z,93.85
2018-04-10T21:42:03.711Z,94.31
2018-04-10T21:44:31.341Z,95.37
2018-04-10T21:46:59.150Z,95.85
2018-04-10T21:49:26.931Z,96.50
2018-04-10T21:51:54.682Z,96.39
2018-04-10T21:54:22.265Z,95.76
2018-04-10T21:56:49.970Z,95.63
2018-04-10T21:59:17.837Z,94.94
2018-04-10T22:01:45.475Z,95.28
2018-04-10T22:04:13.224Z,95.28
2018-04-10T22:06:41.511Z,94.41
2018-04-10T22:09:09.070Z,94.18
2018-04-10T22:11:36.910Z,94.73
2018-04-10T22:14:04.680Z,94.92
2018-04-10T22:16:32.391Z,94.65
2018-04-10T22:19:00.152Z,93.68
2018-04-10T22:21:28.297Z,94.23
2018-04-10T22:23:56.056Z,94.41
2018-04-10T22:26:23.917Z,93.94
2018-04-10T22:28:51.606Z,93.84
2018-04-10T22:31:19.381Z,94.96
2018-04-10T22:33:47.052Z,96.54
2018-04-10T22:36:15.009Z,96.67
2018-04-10T22:38:42.827Z,96.00
2018-04-10T22:41:10.505Z,95.59
2018-04-10T22:43:38.145Z,95.47
2018-04-10T22:46:05.820Z,94.72
2018-04-10T22:48:33.557Z,93.11
2018-04-10T22:51:01.344Z,93.33
2018-04-10T22:53:29.227Z,93.54
2018-04-10T22:55:57.011Z,93.71
2018-04-10T22:58:24.732Z,94.22
2018-04-10T23:00:52.446Z,94.65
2018-04-10T23:03:20.100Z,95.69
2018-04-10T23:05:47.773Z,95.94
2018-04-10T23:08:15.442Z,94.36
2018-04-10T23:10:43.135Z,94.14
2018-04-10T23:13:10.899Z,94.79
2018-04-10T23:15:39.440Z,94.05
2018-04-10T23:18:07.002Z,94.19
2018-04-10T23:20:34.732Z,95.98
2018-04-10T23:23:02.479Z,96.92
2018-04-10T23:25:30.177Z,97.72
2018-04-10T23:27:57.731Z,97.55
2018-04-10T23:30:25.667Z,96.76
2018-04-10T23:32:53.529Z,95.56
2018-04-10T23:35:21.117Z,96.45
2018-04-10T23:37:48.873Z,95.80
2018-04-10T23:40:16.506Z,94.94
2018-04-10T23:42:44.388Z,93.81
2018-04-10T23:45:12.196Z,94.90
2018-04-10T23:47:39.945Z,95.69
2018-04-10T23:50:07.670Z,95.84
2018-04-10T23:52:35.495Z,96.13
2018-04-10T23:55:03.283Z,96.74
2018-04-10T23:57:30.918Z,97.10
2018-04-10T23:59:58.842Z,96.32
